Iskander — 3V4713 — position and weather

sailwx.info

Track history (hours):
 
Tides and Currents Weather Stations Pressure Air Temp Water Temp Dewpoint Dewpoint Depression Visibility Wind Speed Wind Dir Waves Ship Positions

Iskander

Last reported at 2017-Sep-18 16:35 UTC. Time now 2017-Sep-23 07:44 UTC.
Position N 37°50' E 015°59'.

Length 81 m; draft 5.6 m.

Type: Cargo ship. MMSI: 672296000.

Date/timePositionNaut miles runAvg speedWind from/ knotsBaromVisibWave heightAir tempDewpointWater temp
2017-Sep-18 16:35N 37°50' E 015°59'1 8.9
2017-Sep-18 16:26N 37°50' E 015°58'4 8.6
2017-Sep-18 15:59N 37°51' E 015°53'4 8.9
2017-Sep-18 15:30N 37°53' E 015°48'4 8.5
2017-Sep-18 15:00N 37°54' E 015°43'4 8.6
2017-Sep-18 14:30N 37°57' E 015°39'4 8.2
2017-Sep-18 14:00N 38°01' E 015°36'5 9.7
2017-Sep-18 13:30N 38°06' E 015°35'510.9
2017-Sep-18 13:00N 38°11' E 015°35'4 8.9
2017-Sep-18 12:30N 38°15' E 015°38'4 8.2
2017-Sep-18 12:00N 38°19' E 015°40'5 9.5
2017-Sep-18 11:30N 38°22' E 015°36'5 9.7
2017-Sep-18 11:00N 38°26' E 015°32'5 9.8
2017-Sep-18 10:30N 38°29' E 015°27'510.3
2017-Sep-18 10:00N 38°32' E 015°22'5 9.9
2017-Sep-18 09:29N 38°36' E 015°18'5 9.6
2017-Sep-18 09:00N 38°39' E 015°14'5 9.5
2017-Sep-18 08:27N 38°43' E 015°09'  
Track history (hours):
 
Tides and Currents Weather Stations Pressure Air Temp Water Temp Dewpoint Dewpoint Depression Visibility Wind Speed Wind Dir Waves Ship Positions

Iskander

Last reported at 2017-Sep-18 16:35 UTC. Time now 2017-Sep-23 07:44 UTC.
Position N 37°50' E 015°59'.

Length 81 m; draft 5.6 m.

Type: Cargo ship. MMSI: 672296000.

Date/timePositionNaut miles runAvg speedWind from/ knotsBaromVisibWave heightAir tempDewpointWater temp
2017-Sep-18 16:35N 37°50' E 015°59'1 8.9
2017-Sep-18 16:26N 37°50' E 015°58'4 8.6
2017-Sep-18 15:59N 37°51' E 015°53'4 8.9
2017-Sep-18 15:30N 37°53' E 015°48'4 8.5
2017-Sep-18 15:00N 37°54' E 015°43'4 8.6
2017-Sep-18 14:30N 37°57' E 015°39'4 8.2
2017-Sep-18 14:00N 38°01' E 015°36'5 9.7
2017-Sep-18 13:30N 38°06' E 015°35'510.9
2017-Sep-18 13:00N 38°11' E 015°35'4 8.9
2017-Sep-18 12:30N 38°15' E 015°38'4 8.2
2017-Sep-18 12:00N 38°19' E 015°40'5 9.5
2017-Sep-18 11:30N 38°22' E 015°36'5 9.7
2017-Sep-18 11:00N 38°26' E 015°32'5 9.8
2017-Sep-18 10:30N 38°29' E 015°27'510.3
2017-Sep-18 10:00N 38°32' E 015°22'5 9.9
2017-Sep-18 09:29N 38°36' E 015°18'5 9.6
2017-Sep-18 09:00N 38°39' E 015°14'5 9.5
2017-Sep-18 08:27N 38°43' E 015°09'  

Dump ship's entire track history